Time;durP1;ratioP1;P1;durP2;ratioP2;P2;SDS_P1;SDS_P2;PMS_P1;PMS_P2;Temp;Humidity;BMP_temperature;BMP_pressure;BME280_temperature;BME280_humidity;BME280_pressure;Samples;Min_cycle;Max_cycle;Signal;HPM_P1;HPM_P2
2023/07/08 00:00:39;;;;;;;;;;;19.20;72.00;;;;;;5048996;28;19977;-72
2023/07/08 00:03:04;;;;;;;;;;;19.20;72.00;;;;;;5048804;28;19929;-73
2023/07/08 00:05:30;;;;;;;;;;;19.20;71.90;;;;;;5048978;28;20007;-73
2023/07/08 00:07:55;;;;;;;;;;;19.20;72.00;;;;;;5049103;28;20475;-73
2023/07/08 00:10:23;;;;;;;;;;;19.30;72.00;;;;;;5048995;28;19913;-72
2023/07/08 00:12:51;;;;;;;;;;;19.30;72.00;;;;;;5048701;28;20028;-72
2023/07/08 00:15:17;;;;;;;;;;;19.30;72.00;;;;;;5048761;28;19913;-73
2023/07/08 00:17:43;;;;;;;;;;;19.30;72.00;;;;;;5048721;28;19913;-72
2023/07/08 00:20:13;;;;;;;;;;;19.30;72.00;;;;;;5048778;28;19919;-72
2023/07/08 00:22:40;;;;;;;;;;;19.30;72.00;;;;;;5048792;28;19928;-72
2023/07/08 00:25:07;;;;;;;;;;;19.30;72.00;;;;;;5049312;28;20317;-72
2023/07/08 00:27:33;;;;;;;;;;;19.30;72.00;;;;;;5048533;28;20011;-72
2023/07/08 00:30:00;;;;;;;;;;;19.30;72.00;;;;;;5048230;28;20505;-72
2023/07/08 00:32:26;;;;;;;;;;;19.30;71.90;;;;;;5048013;28;19939;-73
2023/07/08 00:34:51;;;;;;;;;;;19.30;71.90;;;;;;5047266;28;19998;-72
2023/07/08 00:37:17;;;;;;;;;;;19.40;71.90;;;;;;5048475;28;19924;-72
2023/07/08 00:39:42;;;;;;;;;;;19.40;72.00;;;;;;5048407;28;19913;-72
2023/07/08 00:42:26;;;;;;;;;;;19.40;72.00;;;;;;5048296;28;20017;-72
2023/07/08 00:44:52;;;;;;;;;;;19.50;72.00;;;;;;5048674;28;19909;-72
2023/07/08 00:47:18;;;;;;;;;;;19.50;72.10;;;;;;5047027;28;19926;-73
2023/07/08 00:49:46;;;;;;;;;;;19.60;72.10;;;;;;5048240;28;20329;-72
2023/07/08 00:52:16;;;;;;;;;;;19.70;72.10;;;;;;5048079;28;19913;-72
2023/07/08 00:54:42;;;;;;;;;;;19.80;72.10;;;;;;5048125;28;20357;-72
2023/07/08 00:57:07;;;;;;;;;;;19.80;72.00;;;;;;5048202;28;19909;-72
2023/07/08 00:59:39;;;;;;;;;;;19.90;72.00;;;;;;5048014;28;19913;-72
2023/07/08 01:02:06;;;;;;;;;;;20.00;72.00;;;;;;5047712;28;19928;-72
2023/07/08 01:04:32;;;;;;;;;;;20.00;72.00;;;;;;5047981;28;19974;-72
2023/07/08 01:06:59;;;;;;;;;;;20.10;72.00;;;;;;5047872;28;19909;-72
2023/07/08 01:09:26;;;;;;;;;;;20.10;72.00;;;;;;5047995;28;19936;-72
2023/07/08 01:11:54;;;;;;;;;;;20.20;72.00;;;;;;5047888;28;20007;-73
2023/07/08 01:14:21;;;;;;;;;;;20.20;72.00;;;;;;5046467;28;19932;-73
2023/07/08 01:16:46;;;;;;;;;;;20.40;72.30;;;;;;5047955;28;20389;-73
2023/07/08 01:19:14;;;;;;;;;;;20.60;72.30;;;;;;5047822;28;19921;-72
2023/07/08 01:22:05;;;;;;;;;;;20.80;72.30;;;;;;5047737;28;20533;-73
2023/07/08 01:24:32;;;;;;;;;;;20.90;72.10;;;;;;5045518;28;19952;-73
2023/07/08 01:26:58;;;;;;;;;;;21.10;72.10;;;;;;5047697;28;19916;-73
2023/07/08 01:29:24;;;;;;;;;;;21.20;72.00;;;;;;5047568;28;19908;-73
2023/07/08 01:31:49;;;;;;;;;;;21.20;72.00;;;;;;5047447;28;19971;-73
2023/07/08 01:34:16;;;;;;;;;;;21.30;72.00;;;;;;5047573;28;19909;-72
2023/07/08 01:36:44;;;;;;;;;;;21.30;72.00;;;;;;5047621;28;19921;-72
2023/07/08 01:39:11;;;;;;;;;;;21.30;72.00;;;;;;5047437;28;19917;-73
2023/07/08 01:41:37;;;;;;;;;;;21.30;71.90;;;;;;5047796;28;19913;-73
2023/07/08 01:44:02;;;;;;;;;;;21.30;71.90;;;;;;5051613;28;20388;-72
2023/07/08 01:46:28;;;;;;;;;;;21.30;72.00;;;;;;5051694;28;20284;-72
2023/07/08 01:48:56;;;;;;;;;;;21.30;72.00;;;;;;5051643;28;20442;-72
2023/07/08 01:51:22;;;;;;;;;;;21.30;72.00;;;;;;5051473;28;19916;-73
2023/07/08 01:53:48;;;;;;;;;;;21.30;72.00;;;;;;5051585;28;19920;-73
2023/07/08 01:56:14;;;;;;;;;;;21.30;72.00;;;;;;5051452;28;19912;-72
2023/07/08 01:58:40;;;;;;;;;;;21.30;72.10;;;;;;5051326;28;19917;-73
2023/07/08 02:01:06;;;;;;;;;;;21.30;72.10;;;;;;5051071;28;19921;-73
2023/07/08 02:03:31;;;;;;;;;;;21.30;72.00;;;;;;5051250;28;20404;-73
2023/07/08 02:05:57;;;;;;;;;;;21.30;72.10;;;;;;5049410;28;19909;-70
2023/07/08 02:08:23;;;;;;;;;;;21.30;72.10;;;;;;5050758;28;19952;-73
2023/07/08 02:10:52;;;;;;;;;;;21.30;72.10;;;;;;5051066;28;19920;-73
2023/07/08 02:13:18;;;;;;;;;;;21.30;72.10;;;;;;5050861;28;19909;-72
2023/07/08 02:15:44;;;;;;;;;;;21.30;72.20;;;;;;5050988;28;19944;-73
2023/07/08 02:18:09;;;;;;;;;;;21.30;72.10;;;;;;5050718;28;19959;-73
2023/07/08 02:20:35;;;;;;;;;;;21.30;72.10;;;;;;5050594;28;19912;-73
2023/07/08 02:23:01;;;;;;;;;;;21.20;72.00;;;;;;5050216;28;20340;-73
2023/07/08 02:25:26;;;;;;;;;;;21.10;72.00;;;;;;5050759;28;19919;-73
2023/07/08 02:27:52;;;;;;;;;;;21.10;72.10;;;;;;5050907;28;20015;-72
2023/07/08 02:30:18;;;;;;;;;;;21.00;72.10;;;;;;5050841;28;19962;-72
2023/07/08 02:32:56;;;;;;;;;;;21.00;72.20;;;;;;5049567;28;19908;-73
2023/07/08 02:35:30;;;;;;;;;;;20.90;72.10;;;;;;5050741;28;19913;-73
2023/07/08 02:37:57;;;;;;;;;;;20.90;72.10;;;;;;5050501;28;19923;-72
2023/07/08 02:40:23;;;;;;;;;;;20.80;72.20;;;;;;5049295;28;19920;-72
2023/07/08 02:42:49;;;;;;;;;;;20.80;72.20;;;;;;5049095;28;19931;-72
2023/07/08 02:45:15;;;;;;;;;;;20.70;72.20;;;;;;5050574;28;19913;-73
2023/07/08 02:47:41;;;;;;;;;;;20.70;72.20;;;;;;5050583;28;19952;-72
2023/07/08 02:50:07;;;;;;;;;;;20.70;72.20;;;;;;5050509;28;19971;-72
2023/07/08 02:52:33;;;;;;;;;;;20.60;72.10;;;;;;5050402;28;19913;-72
2023/07/08 02:54:58;;;;;;;;;;;20.50;72.10;;;;;;5049401;28;20396;-73
2023/07/08 02:57:24;;;;;;;;;;;20.50;72.10;;;;;;5048991;28;20292;-73
2023/07/08 02:59:49;;;;;;;;;;;20.40;72.10;;;;;;5050345;28;19967;-72
2023/07/08 03:02:15;;;;;;;;;;;20.40;72.10;;;;;;5050059;28;19929;-72
2023/07/08 03:04:41;;;;;;;;;;;20.40;72.20;;;;;;5050430;28;20352;-72
2023/07/08 03:07:11;;;;;;;;;;;20.30;72.10;;;;;;5050119;28;19913;-72
2023/07/08 03:09:40;;;;;;;;;;;20.30;72.20;;;;;;5050265;28;19972;-72
2023/07/08 03:12:06;;;;;;;;;;;20.20;72.10;;;;;;5050051;28;19955;-72
2023/07/08 03:14:32;;;;;;;;;;;20.20;72.10;;;;;;5050097;28;19913;-72
2023/07/08 03:16:57;;;;;;;;;;;20.20;72.10;;;;;;5049955;28;19919;-72
2023/07/08 03:19:23;;;;;;;;;;;20.10;72.10;;;;;;5050028;28;19913;-72
2023/07/08 03:21:49;;;;;;;;;;;20.10;72.20;;;;;;5050055;28;19924;-73
2023/07/08 03:24:17;;;;;;;;;;;20.10;72.20;;;;;;5050122;28;20431;-71
2023/07/08 03:26:44;;;;;;;;;;;20.00;72.10;;;;;;5050033;28;19916;-72
2023/07/08 03:29:16;;;;;;;;;;;20.00;72.10;;;;;;5049857;28;19935;-72
2023/07/08 03:31:43;;;;;;;;;;;20.00;72.10;;;;;;5049823;28;19920;-72
2023/07/08 03:34:12;;;;;;;;;;;20.00;72.20;;;;;;5049714;28;19917;-72
2023/07/08 03:36:50;;;;;;;;;;;19.90;72.10;;;;;;5049714;28;19966;-73
2023/07/08 03:39:17;;;;;;;;;;;19.90;72.10;;;;;;5049664;28;19960;-72
2023/07/08 03:41:42;;;;;;;;;;;19.90;72.10;;;;;;5049557;28;20242;-72
2023/07/08 03:44:08;;;;;;;;;;;19.90;72.20;;;;;;5049618;28;19952;-72
2023/07/08 03:46:33;;;;;;;;;;;19.80;72.20;;;;;;5049524;28;20038;-73
2023/07/08 03:48:59;;;;;;;;;;;19.80;72.20;;;;;;5049461;28;19980;-72
2023/07/08 03:51:29;;;;;;;;;;;19.80;72.30;;;;;;5049386;28;19917;-72
2023/07/08 03:53:54;;;;;;;;;;;19.80;72.30;;;;;;5047959;28;20283;-72
2023/07/08 03:56:20;;;;;;;;;;;19.80;72.30;;;;;;5049295;28;20017;-72
2023/07/08 03:58:45;;;;;;;;;;;19.80;72.30;;;;;;5049198;28;19917;-72
2023/07/08 04:01:15;;;;;;;;;;;19.80;72.30;;;;;;5049106;28;19924;-72
2023/07/08 04:03:41;;;;;;;;;;;19.80;72.30;;;;;;5049162;28;19923;-72
2023/07/08 04:06:07;;;;;;;;;;;19.80;72.30;;;;;;5049063;28;19909;-72
2023/07/08 04:08:32;;;;;;;;;;;19.80;72.30;;;;;;5049001;28;20432;-72
2023/07/08 04:10:59;;;;;;;;;;;19.90;72.30;;;;;;5048335;28;21408;-72
2023/07/08 04:13:25;;;;;;;;;;;19.80;72.20;;;;;;5049021;28;19939;-73
2023/07/08 04:15:56;;;;;;;;;;;19.90;72.30;;;;;;5048942;28;20016;-72
2023/07/08 04:18:21;;;;;;;;;;;19.90;72.20;;;;;;5048840;28;19919;-72
2023/07/08 04:20:52;;;;;;;;;;;19.90;72.20;;;;;;5049306;28;20277;-72
2023/07/08 04:23:18;;;;;;;;;;;19.90;72.20;;;;;;5047354;28;19916;-72
2023/07/08 04:25:43;;;;;;;;;;;19.90;72.20;;;;;;5048782;28;19913;-72
2023/07/08 04:28:09;;;;;;;;;;;19.90;72.20;;;;;;5048908;28;19952;-73
2023/07/08 04:30:40;;;;;;;;;;;19.90;72.20;;;;;;5048703;28;19920;-72
2023/07/08 04:33:09;;;;;;;;;;;19.90;72.30;;;;;;5047252;28;20007;-73
2023/07/08 04:35:38;;;;;;;;;;;19.90;72.30;;;;;;5048484;28;20007;-73
2023/07/08 04:38:23;;;;;;;;;;;19.80;72.20;;;;;;5048468;28;19917;-72
2023/07/08 04:40:50;;;;;;;;;;;19.80;72.20;;;;;;5048596;28;19913;-72
2023/07/08 04:43:16;;;;;;;;;;;19.80;72.30;;;;;;5048401;28;19917;-72
2023/07/08 04:45:44;;;;;;;;;;;19.80;72.30;;;;;;5048336;28;19909;-72
2023/07/08 04:48:13;;;;;;;;;;;19.80;72.30;;;;;;5048096;28;20038;-73
2023/07/08 04:50:43;;;;;;;;;;;19.80;72.40;;;;;;5048322;28;19931;-72
2023/07/08 04:53:09;;;;;;;;;;;19.80;72.40;;;;;;5048273;28;19913;-73
2023/07/08 04:55:35;;;;;;;;;;;19.80;72.40;;;;;;5048266;28;20257;-72
2023/07/08 04:58:02;;;;;;;;;;;19.80;72.40;;;;;;5048085;28;20373;-73
2023/07/08 05:00:27;;;;;;;;;;;19.70;72.40;;;;;;5048026;28;19913;-72
2023/07/08 05:02:54;;;;;;;;;;;19.80;72.40;;;;;;5047794;28;19924;-73
2023/07/08 05:05:19;;;;;;;;;;;19.80;72.40;;;;;;5048216;28;19923;-72
2023/07/08 05:07:45;;;;;;;;;;;19.80;72.40;;;;;;5048310;28;20258;-72
2023/07/08 05:10:10;;;;;;;;;;;19.80;72.40;;;;;;5048023;28;19917;-72
2023/07/08 05:12:36;;;;;;;;;;;19.80;72.40;;;;;;5047957;28;20019;-72
2023/07/08 05:15:02;;;;;;;;;;;19.80;72.40;;;;;;5047934;28;19919;-72
2023/07/08 05:17:28;;;;;;;;;;;19.80;72.40;;;;;;5045979;28;19917;-72
2023/07/08 05:19:54;;;;;;;;;;;19.80;72.40;;;;;;5047983;28;20403;-72
2023/07/08 05:22:25;;;;;;;;;;;19.80;72.40;;;;;;5047870;28;19917;-72
2023/07/08 05:24:52;;;;;;;;;;;19.90;72.50;;;;;;5046656;28;19913;-73
2023/07/08 05:27:18;;;;;;;;;;;19.90;72.40;;;;;;5047871;28;19912;-73
2023/07/08 05:29:45;;;;;;;;;;;20.00;72.40;;;;;;5047782;28;19909;-73
2023/07/08 05:32:11;;;;;;;;;;;20.00;72.40;;;;;;5047646;28;19916;-73
2023/07/08 05:34:36;;;;;;;;;;;20.00;72.50;;;;;;5047510;28;20357;-73
2023/07/08 05:37:03;;;;;;;;;;;20.00;72.50;;;;;;5046284;28;19982;-73
2023/07/08 05:39:29;;;;;;;;;;;20.00;72.50;;;;;;5047731;28;19927;-73
2023/07/08 05:41:55;;;;;;;;;;;20.10;72.50;;;;;;5047743;28;19974;-72
2023/07/08 05:44:20;;;;;;;;;;;20.10;72.40;;;;;;5047586;28;19921;-73
2023/07/08 05:46:46;;;;;;;;;;;20.10;72.40;;;;;;5046392;28;19916;-73
2023/07/08 05:49:11;;;;;;;;;;;20.10;72.40;;;;;;5047653;28;19912;-72
2023/07/08 05:51:37;;;;;;;;;;;20.10;72.50;;;;;;5047408;28;19919;-73
2023/07/08 05:54:03;;;;;;;;;;;20.10;72.50;;;;;;5046274;28;20254;-73
2023/07/08 05:56:30;;;;;;;;;;;20.10;72.50;;;;;;5047541;28;19928;-73
2023/07/08 05:58:56;;;;;;;;;;;20.20;72.60;;;;;;5047299;28;19923;-73
2023/07/08 06:01:21;;;;;;;;;;;20.20;72.50;;;;;;5047065;28;20012;-73
2023/07/08 06:03:47;;;;;;;;;;;20.30;72.60;;;;;;5046995;28;19924;-71
2023/07/08 06:06:12;;;;;;;;;;;20.30;72.50;;;;;;5046987;28;19909;-73
2023/07/08 06:08:38;;;;;;;;;;;20.30;72.50;;;;;;5046879;28;19912;-72
2023/07/08 06:11:04;;;;;;;;;;;20.30;72.50;;;;;;5047387;28;19923;-72
2023/07/08 06:13:29;;;;;;;;;;;20.30;72.50;;;;;;5047305;28;20011;-73
2023/07/08 06:15:55;;;;;;;;;;;20.30;72.60;;;;;;5047256;28;19959;-73
2023/07/08 06:18:21;;;;;;;;;;;20.30;72.60;;;;;;5047211;28;19931;-73
2023/07/08 06:20:54;;;;;;;;;;;20.30;72.60;;;;;;5045850;28;20289;-73
2023/07/08 06:23:19;;;;;;;;;;;20.40;72.70;;;;;;5047070;28;19959;-73
2023/07/08 06:25:45;;;;;;;;;;;20.50;72.70;;;;;;5047291;28;19939;-72
2023/07/08 06:28:10;;;;;;;;;;;20.50;72.60;;;;;;5048204;28;19913;-73
2023/07/08 06:30:37;;;;;;;;;;;20.50;72.50;;;;;;5050660;28;20355;-73
2023/07/08 06:33:03;;;;;;;;;;;20.40;72.50;;;;;;5049173;28;19913;-73
2023/07/08 06:35:28;;;;;;;;;;;20.40;72.50;;;;;;5050503;28;20281;-73
2023/07/08 06:37:54;;;;;;;;;;;20.40;72.60;;;;;;5050893;28;19920;-73
2023/07/08 06:40:20;;;;;;;;;;;20.30;72.60;;;;;;5050608;28;19912;-73
2023/07/08 06:42:45;;;;;;;;;;;20.30;72.60;;;;;;5050546;28;20324;-73
2023/07/08 06:45:11;;;;;;;;;;;20.30;72.60;;;;;;5050242;28;20015;-73
2023/07/08 06:47:36;;;;;;;;;;;20.40;72.60;;;;;;5050365;28;20066;-73
2023/07/08 06:50:02;;;;;;;;;;;20.40;72.50;;;;;;5050613;28;19916;-73
2023/07/08 06:52:33;;;;;;;;;;;20.40;72.50;;;;;;5050562;28;19917;-72
2023/07/08 06:55:03;;;;;;;;;;;20.30;72.60;;;;;;5050613;28;19913;-74
2023/07/08 06:57:28;;;;;;;;;;;20.30;72.60;;;;;;5050083;28;19912;-74
2023/07/08 06:59:54;;;;;;;;;;;20.30;72.50;;;;;;5050067;28;19969;-76
2023/07/08 07:02:20;;;;;;;;;;;20.30;72.60;;;;;;5049932;28;19931;-76
2023/07/08 07:04:45;;;;;;;;;;;20.40;72.70;;;;;;5050221;28;19974;-76
2023/07/08 07:07:11;;;;;;;;;;;20.40;72.70;;;;;;5050036;28;19913;-76
2023/07/08 07:09:37;;;;;;;;;;;20.60;72.70;;;;;;5049839;28;19919;-76
2023/07/08 07:12:02;;;;;;;;;;;20.80;72.60;;;;;;5049727;28;20351;-76
2023/07/08 07:14:28;;;;;;;;;;;21.00;72.20;;;;;;5049864;28;19919;-76
2023/07/08 07:16:54;;;;;;;;;;;21.00;72.00;;;;;;5049846;28;19913;-76
2023/07/08 07:19:21;;;;;;;;;;;21.00;72.00;;;;;;5049703;28;19935;-76
2023/07/08 07:21:47;;;;;;;;;;;21.10;72.20;;;;;;5048304;28;20362;-76
2023/07/08 07:24:12;;;;;;;;;;;21.30;72.20;;;;;;5049668;28;19957;-76
2023/07/08 07:26:38;;;;;;;;;;;21.40;72.00;;;;;;5049394;28;19916;-76
2023/07/08 07:29:03;;;;;;;;;;;21.50;72.20;;;;;;5049433;28;19952;-76
2023/07/08 07:31:29;;;;;;;;;;;21.70;72.10;;;;;;5048224;28;19954;-76
2023/07/08 07:33:56;;;;;;;;;;;21.70;71.70;;;;;;5049416;28;19992;-76
2023/07/08 07:36:21;;;;;;;;;;;21.70;71.60;;;;;;5049317;28;19910;-76
2023/07/08 07:38:47;;;;;;;;;;;21.60;71.70;;;;;;5049054;28;20422;-76
2023/07/08 07:41:12;;;;;;;;;;;21.60;71.90;;;;;;5048462;28;19917;-76
2023/07/08 07:43:38;;;;;;;;;;;21.70;71.90;;;;;;5047823;28;20003;-76
2023/07/08 07:46:05;;;;;;;;;;;21.70;71.90;;;;;;5048903;28;19991;-76
2023/07/08 07:48:31;;;;;;;;;;;21.70;71.80;;;;;;5048992;28;20363;-76
2023/07/08 07:50:57;;;;;;;;;;;21.60;71.80;;;;;;5048958;28;19923;-74
2023/07/08 07:53:22;;;;;;;;;;;21.60;71.90;;;;;;5048903;28;19913;-76
2023/07/08 07:55:55;;;;;;;;;;;21.60;71.90;;;;;;5049223;28;20352;-76
2023/07/08 07:58:20;;;;;;;;;;;21.60;71.90;;;;;;5048493;28;19963;-76
2023/07/08 08:00:46;;;;;;;;;;;21.70;72.00;;;;;;5048498;28;19975;-76
2023/07/08 08:03:12;;;;;;;;;;;21.80;72.00;;;;;;5048277;28;19921;-76
2023/07/08 08:05:37;;;;;;;;;;;22.00;71.90;;;;;;5048236;28;19913;-76
2023/07/08 08:08:03;;;;;;;;;;;22.10;72.00;;;;;;5048537;28;19944;-74
2023/07/08 08:10:29;;;;;;;;;;;22.40;71.90;;;;;;5048492;28;20003;-74
2023/07/08 08:12:55;;;;;;;;;;;22.60;71.80;;;;;;5048610;28;20012;-74
2023/07/08 08:15:21;;;;;;;;;;;23.00;71.80;;;;;;5048244;28;19921;-69
2023/07/08 08:17:48;;;;;;;;;;;23.30;71.80;;;;;;5048423;28;19917;-73
2023/07/08 08:20:14;;;;;;;;;;;23.60;71.40;;;;;;5048372;28;19966;-76
2023/07/08 08:22:40;;;;;;;;;;;23.90;71.30;;;;;;5048427;28;19913;-76
2023/07/08 08:25:06;;;;;;;;;;;23.80;70.60;;;;;;5048213;28;20348;-76
2023/07/08 08:27:32;;;;;;;;;;;23.50;70.60;;;;;;5046778;28;20342;-76
2023/07/08 08:29:57;;;;;;;;;;;23.40;71.20;;;;;;5048029;28;19917;-76
2023/07/08 08:32:23;;;;;;;;;;;23.40;71.60;;;;;;5048166;28;20015;-76
2023/07/08 08:34:48;;;;;;;;;;;23.50;71.60;;;;;;5048066;28;19966;-76
2023/07/08 08:37:14;;;;;;;;;;;23.70;71.40;;;;;;5048320;28;19952;-76
2023/07/08 08:39:39;;;;;;;;;;;23.70;71.20;;;;;;5047807;28;19916;-76
2023/07/08 08:42:13;;;;;;;;;;;23.70;71.30;;;;;;5047758;28;19930;-76
2023/07/08 08:44:44;;;;;;;;;;;23.60;71.20;;;;;;5048099;28;19920;-76
2023/07/08 08:47:21;;;;;;;;;;;23.30;71.20;;;;;;5047855;28;19963;-76
2023/07/08 08:49:50;;;;;;;;;;;23.20;71.50;;;;;;5047543;28;19948;-76
2023/07/08 08:52:16;;;;;;;;;;;23.30;71.80;;;;;;5046831;28;20318;-76
2023/07/08 08:54:43;;;;;;;;;;;23.50;72.00;;;;;;5047551;28;19916;-77
2023/07/08 08:57:30;;;;;;;;;;;24.00;72.00;;;;;;5047533;28;20381;-77
2023/07/08 08:59:57;;;;;;;;;;;24.40;71.40;;;;;;5040455;28;19917;-78
2023/07/08 09:02:42;;;;;;;;;;;24.40;71.00;;;;;;5032502;28;19921;-74
2023/07/08 09:05:09;;;;;;;;;;;24.50;71.20;;;;;;5028610;28;19963;-75
2023/07/08 09:07:41;;;;;;;;;;;24.70;71.30;;;;;;5037537;28;19912;-75
2023/07/08 09:10:18;;;;;;;;;;;25.00;71.50;;;;;;5045073;28;20357;-74
2023/07/08 09:12:45;;;;;;;;;;;25.60;71.70;;;;;;5039043;28;19939;-76
2023/07/08 09:15:15;;;;;;;;;;;25.90;71.10;;;;;;5037571;28;19913;-75
2023/07/08 09:17:40;;;;;;;;;;;26.30;71.40;;;;;;5040669;28;19912;-74
2023/07/08 09:20:16;;;;;;;;;;;27.10;71.80;;;;;;5036855;28;19923;-74
2023/07/08 09:22:44;;;;;;;;;;;27.40;71.00;;;;;;5037361;28;20270;-76
2023/07/08 09:25:10;;;;;;;;;;;27.20;70.60;;;;;;5045900;28;19909;-75
2023/07/08 09:27:35;;;;;;;;;;;27.30;71.30;;;;;;5048566;28;19909;-75
2023/07/08 09:30:01;;;;;;;;;;;27.40;71.30;;;;;;5048565;28;19927;-75
2023/07/08 09:32:27;;;;;;;;;;;27.60;71.50;;;;;;5048496;28;19909;-75
2023/07/08 09:34:53;;;;;;;;;;;27.90;72.10;;;;;;5048283;28;19916;-76
2023/07/08 09:37:21;;;;;;;;;;;28.40;72.00;;;;;;5048177;28;20328;-76
2023/07/08 09:39:47;;;;;;;;;;;28.90;72.50;;;;;;5048006;28;19909;-75
2023/07/08 09:42:13;;;;;;;;;;;29.30;71.70;;;;;;5047831;28;19995;-76
2023/07/08 09:44:39;;;;;;;;;;;29.70;71.90;;;;;;5047694;28;19988;-69
2023/07/08 09:47:19;;;;;;;;;;;30.10;71.80;;;;;;5047741;28;19932;-75
2023/07/08 09:49:44;;;;;;;;;;;30.30;71.80;;;;;;5048281;28;20018;-74
2023/07/08 09:52:12;;;;;;;;;;;30.50;72.10;;;;;;5049253;28;19917;-75
2023/07/08 09:54:37;;;;;;;;;;;30.50;71.90;;;;;;5045002;28;19985;-76
2023/07/08 09:57:09;;;;;;;;;;;29.90;71.60;;;;;;5049199;28;19940;-73
2023/07/08 09:59:39;;;;;;;;;;;29.60;72.20;;;;;;5042337;28;19924;-76
2023/07/08 10:02:21;;;;;;;;;;;29.50;72.80;;;;;;5030942;28;19921;-77
2023/07/08 10:04:51;;;;;;;;;;;29.80;73.40;;;;;;5031465;28;19996;-77
2023/07/08 10:07:17;;;;;;;;;;;30.20;73.10;;;;;;5031688;28;19920;-76
2023/07/08 10:09:42;;;;;;;;;;;30.60;73.00;;;;;;5032130;28;19999;-76
2023/07/08 10:12:11;;;;;;;;;;;30.80;72.90;;;;;;5032219;28;19917;-76
2023/07/08 10:14:38;;;;;;;;;;;31.20;72.60;;;;;;5032281;28;19913;-76
2023/07/08 10:17:05;;;;;;;;;;;31.20;72.30;;;;;;5031912;28;19963;-76
2023/07/08 10:19:30;;;;;;;;;;;31.40;72.40;;;;;;5031724;28;20000;-77
2023/07/08 10:22:08;;;;;;;;;;;31.50;72.60;;;;;;5031365;28;20353;-76
2023/07/08 10:24:36;;;;;;;;;;;31.90;72.90;;;;;;5031458;28;20374;-76
2023/07/08 10:27:14;;;;;;;;;;;32.20;72.70;;;;;;5031712;28;20219;-75
2023/07/08 10:29:45;;;;;;;;;;;32.50;72.50;;;;;;5031053;28;19956;-75
2023/07/08 10:32:16;;;;;;;;;;;32.00;71.40;;;;;;5037129;28;20563;-74
2023/07/08 10:34:45;;;;;;;;;;;31.10;71.90;;;;;;5039974;28;19920;-74
2023/07/08 10:37:30;;;;;;;;;;;30.80;73.00;;;;;;5035133;28;19953;-76
2023/07/08 10:39:55;;;;;;;;;;;30.60;72.20;;;;;;5040667;28;19959;-76
2023/07/08 10:42:22;;;;;;;;;;;30.50;72.50;;;;;;5041691;28;19948;-76
2023/07/08 10:45:07;;;;;;;;;;;30.40;72.20;;;;;;5038521;28;19909;-76
2023/07/08 10:47:32;;;;;;;;;;;29.90;71.50;;;;;;5034774;28;19913;-76
2023/07/08 10:50:36;;;;;;;;;;;29.00;71.20;;;;;;5037189;28;20216;-76
2023/07/08 10:53:20;;;;;;;;;;;28.30;71.40;;;;;;4976691;28;20065;-75
2023/07/08 10:55:55;;;;;;;;;;;27.70;71.70;;;;;;4979492;28;20060;-75
2023/07/08 10:58:36;;;;;;;;;;;27.90;73.20;;;;;;5017651;28;19913;-76
2023/07/08 11:01:04;;;;;;;;;;;28.20;72.50;;;;;;5038433;28;19917;-77
2023/07/08 11:03:46;;;;;;;;;;;28.20;72.10;;;;;;5042232;28;19967;-76
2023/07/08 11:06:21;;;;;;;;;;;28.20;72.30;;;;;;5039424;28;19932;-76
2023/07/08 11:08:53;;;;;;;;;;;28.40;72.30;;;;;;5038762;28;19996;-76
2023/07/08 11:11:40;;;;;;;;;;;28.60;72.40;;;;;;5043293;28;20002;-76
2023/07/08 11:14:05;;;;;;;;;;;28.70;72.10;;;;;;5041081;28;19913;-76
2023/07/08 11:16:36;;;;;;;;;;;29.00;72.20;;;;;;5040537;28;19909;-77
2023/07/08 11:19:04;;;;;;;;;;;29.10;72.00;;;;;;5038143;28;19921;-75
2023/07/08 11:21:34;;;;;;;;;;;29.50;72.60;;;;;;5030390;28;19990;-76
2023/07/08 11:24:05;;;;;;;;;;;29.80;72.20;;;;;;5030208;28;20397;-77
2023/07/08 11:26:31;;;;;;;;;;;30.00;72.00;;;;;;5037362;28;19909;-77
2023/07/08 11:28:58;;;;;;;;;;;30.20;72.30;;;;;;5049754;28;20326;-77
2023/07/08 11:31:25;;;;;;;;;;;30.70;72.60;;;;;;5049741;28;20011;-76
2023/07/08 11:33:52;;;;;;;;;;;31.10;72.50;;;;;;5050208;28;19999;-76
2023/07/08 11:36:19;;;;;;;;;;;31.20;71.60;;;;;;5041329;28;20337;-76
2023/07/08 11:38:53;;;;;;;;;;;30.60;70.90;;;;;;5030443;28;19913;-76
2023/07/08 11:41:20;;;;;;;;;;;30.00;70.90;;;;;;5029494;28;19975;-72
2023/07/08 11:43:51;;;;;;;;;;;29.60;71.50;;;;;;5030642;28;19975;-73
2023/07/08 11:46:25;;;;;;;;;;;29.80;72.50;;;;;;5047962;28;19917;-73
2023/07/08 11:48:54;;;;;;;;;;;30.50;73.20;;;;;;5049199;28;19955;-73
2023/07/08 11:51:24;;;;;;;;;;;31.50;73.30;;;;;;5047708;28;20266;-74
2023/07/08 11:53:58;;;;;;;;;;;32.40;73.30;;;;;;5045190;28;20349;-73
2023/07/08 11:56:24;;;;;;;;;;;33.00;72.70;;;;;;5030108;28;19919;-73
2023/07/08 11:58:50;;;;;;;;;;;33.40;72.80;;;;;;5028783;28;19921;-73
2023/07/08 12:01:15;;;;;;;;;;;33.60;72.70;;;;;;5029022;28;19971;-72
2023/07/08 12:03:48;;;;;;;;;;;33.80;72.80;;;;;;5027828;28;20354;-73
2023/07/08 12:06:25;;;;;;;;;;;33.60;72.20;;;;;;5029263;28;20376;-72
2023/07/08 12:08:53;;;;;;;;;;;33.10;71.70;;;;;;5029124;28;20416;-72
2023/07/08 12:11:23;;;;;;;;;;;32.10;71.30;;;;;;5028895;28;19909;-72
2023/07/08 12:13:49;;;;;;;;;;;31.80;72.70;;;;;;5028937;28;19917;-72
2023/07/08 12:16:15;;;;;;;;;;;31.70;72.30;;;;;;5028512;28;19931;-72
2023/07/08 12:18:45;;;;;;;;;;;31.30;72.30;;;;;;5036629;28;19924;-72
2023/07/08 12:21:12;;;;;;;;;;;31.40;73.20;;;;;;5037796;28;20024;-72
2023/07/08 12:23:43;;;;;;;;;;;31.80;73.40;;;;;;5039999;28;20261;-72
2023/07/08 12:26:09;;;;;;;;;;;31.90;72.90;;;;;;5037134;28;19928;-73
2023/07/08 12:28:36;;;;;;;;;;;31.90;73.10;;;;;;5038282;28;20254;-72
2023/07/08 12:31:01;;;;;;;;;;;32.00;73.00;;;;;;5036301;28;19940;-71
2023/07/08 12:33:32;;;;;;;;;;;31.60;72.20;;;;;;5036388;28;19953;-71
2023/07/08 12:35:59;;;;;;;;;;;31.00;71.70;;;;;;5048508;28;20575;-71
2023/07/08 12:38:37;;;;;;;;;;;30.40;71.80;;;;;;5048332;28;19916;-71
2023/07/08 12:41:08;;;;;;;;;;;29.90;71.70;;;;;;5048656;28;20418;-71
2023/07/08 12:43:34;;;;;;;;;;;29.30;71.50;;;;;;5048402;28;19919;-71
2023/07/08 12:45:59;;;;;;;;;;;28.80;71.70;;;;;;5048435;28;19912;-71
2023/07/08 12:48:25;;;;;;;;;;;28.40;71.60;;;;;;5048392;28;20463;-71
2023/07/08 12:50:50;;;;;;;;;;;28.20;71.90;;;;;;5048356;28;19912;-71
2023/07/08 12:53:16;;;;;;;;;;;28.10;71.90;;;;;;5048184;28;19936;-70
2023/07/08 12:55:43;;;;;;;;;;;28.00;71.70;;;;;;5048462;28;19916;-71
2023/07/08 12:58:23;;;;;;;;;;;27.90;71.60;;;;;;5046672;28;19917;-71
2023/07/08 13:00:48;;;;;;;;;;;27.90;71.60;;;;;;5046347;28;20007;-71
2023/07/08 13:03:19;;;;;;;;;;;27.90;71.60;;;;;;5048211;28;20174;-71
2023/07/08 13:05:44;;;;;;;;;;;27.90;71.50;;;;;;5048548;28;19994;-71
2023/07/08 13:08:11;;;;;;;;;;;27.90;71.60;;;;;;5036709;28;20007;-71
2023/07/08 13:10:37;;;;;;;;;;;28.10;71.70;;;;;;5030407;28;20273;-71
2023/07/08 13:13:04;;;;;;;;;;;28.30;72.00;;;;;;5047994;28;19913;-72
2023/07/08 13:15:39;;;;;;;;;;;28.70;72.20;;;;;;5033578;28;20003;-71
2023/07/08 13:18:06;;;;;;;;;;;29.00;72.00;;;;;;5028215;28;20247;-70
2023/07/08 13:20:32;;;;;;;;;;;29.00;71.90;;;;;;5033960;28;20368;-70
2023/07/08 13:22:59;;;;;;;;;;;29.10;72.00;;;;;;5047901;28;19917;-70
2023/07/08 13:25:27;;;;;;;;;;;29.10;71.40;;;;;;5047637;28;20332;-71
2023/07/08 13:27:57;;;;;;;;;;;28.90;71.20;;;;;;5044338;28;19921;-71
2023/07/08 13:30:24;;;;;;;;;;;28.70;71.40;;;;;;5033937;28;19941;-71
2023/07/08 13:32:57;;;;;;;;;;;28.60;70.90;;;;;;5038969;28;19920;-72
2023/07/08 13:35:23;;;;;;;;;;;28.30;71.00;;;;;;5034993;28;19980;-70
2023/07/08 13:37:50;;;;;;;;;;;28.20;71.20;;;;;;5036871;28;19963;-70
2023/07/08 13:40:16;;;;;;;;;;;28.00;71.30;;;;;;5042106;28;19913;-70
2023/07/08 13:42:51;;;;;;;;;;;27.80;71.10;;;;;;5040669;28;19920;-70
2023/07/08 13:45:21;;;;;;;;;;;27.60;70.90;;;;;;5039033;28;20396;-70
2023/07/08 13:47:57;;;;;;;;;;;27.30;70.80;;;;;;5043236;28;19912;-71
2023/07/08 13:50:25;;;;;;;;;;;27.10;71.10;;;;;;5035679;28;19916;-71
2023/07/08 13:52:54;;;;;;;;;;;27.00;71.10;;;;;;5031380;28;19921;-71
2023/07/08 13:55:22;;;;;;;;;;;26.90;71.00;;;;;;5031625;28;19956;-73
2023/07/08 13:57:55;;;;;;;;;;;26.80;70.80;;;;;;5031758;28;20007;-74
2023/07/08 14:00:20;;;;;;;;;;;26.60;71.00;;;;;;5031809;28;19963;-71
2023/07/08 14:02:46;;;;;;;;;;;26.40;71.10;;;;;;5031575;28;19937;-71
2023/07/08 14:05:13;;;;;;;;;;;26.30;71.10;;;;;;5031041;28;19920;-71
2023/07/08 14:07:39;;;;;;;;;;;26.30;71.10;;;;;;5030398;28;20830;-71
2023/07/08 14:10:09;;;;;;;;;;;26.30;71.00;;;;;;5031768;28;19956;-71
2023/07/08 14:12:35;;;;;;;;;;;26.20;70.70;;;;;;5031383;28;20286;-71
2023/07/08 14:15:01;;;;;;;;;;;26.10;70.60;;;;;;5031342;28;19924;-72
2023/07/08 14:17:27;;;;;;;;;;;25.90;70.70;;;;;;5029673;28;19920;-72
2023/07/08 14:19:53;;;;;;;;;;;25.90;71.00;;;;;;5031479;28;20622;-72